ADDS METAR Data INFO
IDs: Format: Raw Decoded Include TAF

Data at: 0502 UTC 23 May 2017

KBGD 230451Z AUTO 20004KT 10SM CLR 13/11 A3004 RMK AO2 SLP150 T01330111
KBGD 230351Z AUTO 06004KT 10SM CLR 15/11 A3004 RMK AO2 SLP148 T01500111
KBGD 230251Z AUTO 03005KT 10SM CLR 15/11 A3003 RMK AO2 SLP146 T01500111 53006
KBGD 230151Z AUTO 03006KT 10SM CLR 17/12 A3000 RMK AO2 SLP138 T01670117
KBGD 230051Z AUTO 02008KT 10SM CLR 19/11 A2999 RMK AO2 SLP133 T01940111
KBGD 222351Z AUTO 36010KT 10SM SCT032 BKN039 BKN055 20/12 A3001 RMK AO2 SLP138 T02000117 10200 20156 56010
KBGD 222251Z AUTO 06007KT 10SM BKN030 BKN041 OVC049 19/12 A3002 RMK AO2 SLP142 T01940122
KBGD 222151Z AUTO 02004KT 10SM FEW026 FEW036 SCT070 19/12 A3002 RMK AO2 SLP139 T01940122
KBGD 222110Z AUTO 00000KT 10SM SCT023 BKN060 OVC075 19/12 A3004 RMK AO2 T01890122
KBGD 222051Z AUTO 04006KT 10SM BKN020 BKN028 OVC048 19/13 A3004 RMK AO2 SLP145 T01890128 58013
KBGD 221951Z AUTO 34008KT 10SM BKN017 OVC026 17/12 A3007 RMK AO2 SLP159 T01670122
KBGD 221936Z AUTO 35005KT 10SM FEW013 BKN017 OVC037 17/13 A3007 RMK AO2 T01670128
KBGD 221851Z AUTO 35007KT 10SM FEW012 OVC035 16/13 A3008 RMK AO2 SLP163 T01560128
KBGD 221751Z AUTO 01009KT 10SM OVC036 17/13 A3008 RMK AO2 SLP161 T01670128 10183 20122 58007
KBGD 221651Z AUTO 18006KT 10SM OVC035 18/11 A3009 RMK AO2 SLP161 T01780111
KBGD 221551Z AUTO 16005KT 10SM BKN046 OVC085 17/12 A3010 RMK AO2 SLP164 T01720117
KBGD 221451Z AUTO 13006KT 10SM FEW055 SCT095 15/12 A3011 RMK AO2 LTG DSNT N AND NE TSE1359 SLP168 T01500122 58003
KBGD 221413Z AUTO 12005KT 10SM OVC050 14/12 A3012 RMK AO2 LTG DSNT N-E TSE1359 T01390122
KBGD 221405Z AUTO 11004KT 10SM VCTS OVC050 14/12 A3012 RMK AO2 LTG DSNT N-E TSE1359 T01390122
KBGD 221351Z AUTO 12006KT 10SM TS OVC050 13/12 A3012 RMK AO2 LTG DSNT NW-NE TSB44 SLP173 T01330122
KBGD 221330Z AUTO 12007KT 10SM VCTS OVC055 13/12 A3012 RMK AO2 LTG DSNT N AND NE T01330117
KBGD 221251Z AUTO 14010KT 10SM OVC060 13/11 A3012 RMK AO2 LTG DSNT NW-NE SLP170 T01280111
KBGD 221212Z AUTO 07006KT 10SM OVC060 12/12 A3014 RMK AO2 LTG DSNT NE AND NW T01220117
KBGD 221151Z AUTO 07005KT 10SM VCTS OVC065 12/12 A3015 RMK AO2 LTG DSNT N AND NW RAE30 TSB17E32 SLP183 P0003 60041 70041 T01220117 10172 20117 50007
KBGD 221137Z AUTO 12007KT 10SM BKN070 OVC080 12/11 A3014 RMK AO2 LTG DSNT NW RAE30 TSB17E32 P0003 T01170111
KBGD 221123Z AUTO 12008KT 9SM -TSRA BKN070 OVC085 12/11 A3014 RMK AO2 LTG DSNT W AND NW TSB17 P0003 T01220111
KBGD 221051Z AUTO 07005KT 6SM -RA BR OVC065 12/11 A3018 RMK AO2 PK WND 33032/1001 WSHFT 0958 LTG DSNT ALQDS RAB07 TSB18E48 SLP193 P0038 T01170111
KBGD 221022Z AUTO 34007G19KT 3SM +TSRA BR SCT037 BKN044 OVC065 12/10 A3019 RMK AO2 PK WND 33032/1001 WSHFT 0958 LTG DSNT NW-E RAB07 TSB18 P0030 T01170100
KBGD 221012Z AUTO 32013G26KT 2SM VCTS +RA FEW030 OVC040 12/09 A3021 RMK AO2 PK WND 33032/1001 WSHFT 0958 LTG DSNT W-NE RAB07 PRESRR P0021 T01220089
KBGD 220959Z AUTO 31013G20KT 10SM VCTS OVC042 16/08 A3019 RMK AO2 LTG DSNT W-NE PRESRR T01610078
KBGD 220951Z AUTO VRB03KT 10SM OVC040 16/08 A3013 RMK AO2 LTG DSNT W-NE SLP170 T01610078
KBGD 220851Z AUTO 09003KT 10SM OVC040 16/07 A3013 RMK AO2 LTG DSNT NE AND E SLP169 60000 T01610072 56006
KBGD 220811Z AUTO 02010KT 10SM OVC037 16/08 A3014 RMK AO2 LTG DSNT N AND NE T01560078
KBGD 220751Z AUTO 00000KT 10SM VCTS FEW039 BKN075 BKN090 15/08 A3014 RMK AO2 LTG DSNT N AND NE SLP174 T01500078
KBGD 220735Z AUTO 12006KT 10SM VCTS FEW055 BKN085 16/08 A3013 RMK AO2 LTG DSNT N AND NW T01560078
KBGD 220651Z AUTO 11007KT 10SM BKN070 16/08 A3015 RMK AO2 LTG DSNT NW RAE27 SLP178 P0000 T01560083
KBGD 220551Z AUTO 14009KT 10SM -RA OVC095 17/07 A3016 RMK AO2 RAB0458E20B48 SLP182 P0000 60000 T01720072 10250 20172 402670067 50014
KBGD 220451Z AUTO 14007KT 10SM SCT055 SCT070 OVC095 18/06 A3018 RMK AO2 LTG DSNT W RAB27E36 SLP189 P0000 T01830061
KBGD 220351Z AUTO 00000KT 10SM BKN110 19/05 A3019 RMK AO2 SLP192 T01940050
KBGD 220251Z AUTO 15010G19KT 10SM CLR 20/05 A3012 RMK AO2 PK WND 17028/0159 SLP169 T02000050 53021
KBGD 220151Z AUTO 17016G24KT 10SM FEW120 21/03 A3008 RMK AO2 SLP158 T02110028
KBGD 220051Z AUTO 16012G22KT 10SM BKN110 23/01 A3007 RMK AO2 SLP157 T02330011
KBGD 212351Z AUTO 16013G22KT 10SM BKN110 24/02 A3005 RMK AO2 SLP153 T02440022 10267 20228 58018
KBGD 212251Z AUTO 16013G18KT 10SM OVC100 24/04 A3007 RMK AO2 SLP155 T02440039
KBGD 212151Z AUTO 16012G24KT 10SM SCT090 BKN110 26/05 A3009 RMK AO2 PK WND 14029/2141 SLP163 T02560050
KBGD 212051Z AUTO 14012G20KT 10SM FEW075 26/06 A3011 RMK AO2 SLP168 T02560056 58025
KBGD 211951Z AUTO 19012G22KT 10SM FEW070 25/06 A3013 RMK AO2 SLP176 T02500061
KBGD 211851Z AUTO 17012G17KT 10SM CLR 24/05 A3016 RMK AO2 SLP185 T02390050
KBGD 211751Z AUTO 18016G21KT 10SM CLR 23/05 A3018 RMK AO2 SLP194 T02280050 10233 20067 58009


Page loaded:  05:02 UTC  |   10:02 PM Pacific  |   11:02 PM Mountain  |   12:02 AM Central  |   01:02 AM Eastern

 

ADVISORIES

FORECASTS

FORECASTS

OBSERVATIONS

USER TOOLS

ABOUT US